createdAt,value
2018-04-17T00:01:24.755Z,15.21
2018-04-17T00:03:52.319Z,15.14
2018-04-17T00:06:20.766Z,14.86
2018-04-17T00:08:48.410Z,14.79
2018-04-17T00:11:16.091Z,14.89
2018-04-17T00:13:43.635Z,14.98
2018-04-17T00:16:11.174Z,15.01
2018-04-17T00:18:38.823Z,15.00
2018-04-17T00:21:06.395Z,14.99
2018-04-17T00:23:34.077Z,14.68
2018-04-17T00:26:01.529Z,14.58
2018-04-17T00:28:29.019Z,14.53
2018-04-17T00:30:56.489Z,14.44
2018-04-17T00:33:23.953Z,14.43
2018-04-17T00:35:51.390Z,14.25
2018-04-17T00:38:18.839Z,14.30
2018-04-17T00:40:46.520Z,14.37
2018-04-17T00:43:14.008Z,14.38
2018-04-17T00:45:41.460Z,14.38
2018-04-17T00:48:08.958Z,14.40
2018-04-17T00:50:36.766Z,14.42
2018-04-17T00:53:16.537Z,14.44
2018-04-17T00:55:44.026Z,14.39
2018-04-17T00:58:12.088Z,14.36
2018-04-17T01:00:39.604Z,14.18
2018-04-17T01:03:07.118Z,14.21
2018-04-17T01:05:34.771Z,14.22
2018-04-17T01:08:02.293Z,14.22
2018-04-17T01:10:30.125Z,14.21
2018-04-17T01:12:57.594Z,14.20
2018-04-17T01:15:25.059Z,14.18
2018-04-17T01:17:52.510Z,14.14
2018-04-17T01:20:19.948Z,14.12
2018-04-17T01:22:47.439Z,14.03
2018-04-17T01:25:14.864Z,13.93
2018-04-17T01:27:42.367Z,13.89
2018-04-17T01:30:09.844Z,13.92
2018-04-17T01:32:37.492Z,13.88
2018-04-17T01:35:04.929Z,13.88
2018-04-17T01:37:32.394Z,13.84
2018-04-17T01:39:59.871Z,13.78
2018-04-17T01:42:27.359Z,13.74
2018-04-17T01:44:54.814Z,13.75
2018-04-17T01:47:22.522Z,13.75
2018-04-17T01:49:50.307Z,13.73
2018-04-17T01:52:17.797Z,13.70
2018-04-17T01:54:45.251Z,13.69
2018-04-17T01:57:13.030Z,13.65
2018-04-17T01:59:40.611Z,13.60
2018-04-17T02:02:08.047Z,13.47
2018-04-17T02:04:35.507Z,13.48
2018-04-17T02:07:03.603Z,13.40
2018-04-17T02:09:31.065Z,13.32
2018-04-17T02:11:58.529Z,13.28
2018-04-17T02:14:26.003Z,13.28
2018-04-17T02:16:53.877Z,13.32
2018-04-17T02:19:22.146Z,13.23
2018-04-17T02:21:50.108Z,13.22
2018-04-17T02:24:17.616Z,13.19
2018-04-17T02:26:45.073Z,13.12
2018-04-17T02:29:12.545Z,13.14
2018-04-17T02:31:40.060Z,13.07
2018-04-17T02:34:07.558Z,12.99
2018-04-17T02:36:35.019Z,12.90
2018-04-17T02:39:02.452Z,12.93
2018-04-17T02:41:29.917Z,12.89
2018-04-17T02:43:57.453Z,12.92
2018-04-17T02:46:24.934Z,12.84
2018-04-17T02:48:52.378Z,12.81
2018-04-17T02:51:19.879Z,12.75
2018-04-17T02:53:47.339Z,12.74
2018-04-17T02:56:14.799Z,12.69
2018-04-17T02:58:42.245Z,12.58
2018-04-17T03:01:09.781Z,12.61
2018-04-17T03:03:37.249Z,12.54
2018-04-17T03:06:05.419Z,12.41
2018-04-17T03:08:32.928Z,12.42
2018-04-17T03:11:00.373Z,12.45
2018-04-17T03:13:27.838Z,12.41
2018-04-17T03:15:55.327Z,12.39
2018-04-17T03:18:23.687Z,12.27
2018-04-17T03:20:51.211Z,12.24
2018-04-17T03:23:22.659Z,12.26
2018-04-17T03:25:50.140Z,12.27
2018-04-17T03:28:17.609Z,12.27
2018-04-17T03:30:45.149Z,12.34
2018-04-17T03:33:12.607Z,12.25
2018-04-17T03:35:43.628Z,12.29
2018-04-17T03:38:11.115Z,12.22
2018-04-17T03:40:38.927Z,12.18
2018-04-17T03:43:06.519Z,12.19
2018-04-17T03:45:33.953Z,12.06
2018-04-17T03:48:01.470Z,12.04
2018-04-17T03:50:28.931Z,12.05
2018-04-17T03:52:56.392Z,11.96
2018-04-17T03:55:23.977Z,11.94
2018-04-17T03:57:51.471Z,11.93
2018-04-17T04:00:19.027Z,11.98
2018-04-17T04:02:46.551Z,11.99
2018-04-17T04:05:13.964Z,12.00
2018-04-17T04:07:41.559Z,11.91
2018-04-17T04:10:13.200Z,11.85
2018-04-17T04:12:40.654Z,11.81
2018-04-17T04:15:08.118Z,11.80
2018-04-17T04:17:47.332Z,11.84
2018-04-17T04:20:26.603Z,11.81
2018-04-17T04:23:05.817Z,11.84
2018-04-17T04:28:42.056Z,11.64
2018-04-17T04:31:09.590Z,11.66
2018-04-17T04:33:37.103Z,11.66
2018-04-17T04:36:04.561Z,11.71
2018-04-17T04:38:32.006Z,11.68
2018-04-17T04:41:00.279Z,11.69
2018-04-17T04:43:28.053Z,11.65
2018-04-17T04:45:55.512Z,11.69
2018-04-17T04:48:22.966Z,11.67
2018-04-17T04:50:50.459Z,11.66
2018-04-17T04:53:17.921Z,11.66
2018-04-17T04:55:45.660Z,11.71
2018-04-17T04:58:13.115Z,11.75
2018-04-17T05:00:41.321Z,11.76
2018-04-17T05:03:08.787Z,11.79
2018-04-17T05:05:36.220Z,11.75
2018-04-17T05:08:05.262Z,11.75
2018-04-17T05:10:33.256Z,11.79
2018-04-17T05:13:00.820Z,11.86
2018-04-17T05:15:28.264Z,11.84
2018-04-17T05:17:55.836Z,11.86
2018-04-17T05:20:23.396Z,11.94
2018-04-17T05:22:50.953Z,12.00
2018-04-17T05:25:19.009Z,12.18
2018-04-17T05:27:46.445Z,12.30
2018-04-17T05:30:13.897Z,12.28
2018-04-17T05:32:41.330Z,12.46
2018-04-17T05:35:12.042Z,12.64
2018-04-17T05:37:39.880Z,13.11
2018-04-17T05:40:07.367Z,14.51
2018-04-17T05:42:34.918Z,15.55
2018-04-17T05:45:02.381Z,16.65
2018-04-17T05:47:29.841Z,17.61
2018-04-17T05:49:57.674Z,18.41
2018-04-17T05:52:25.176Z,19.08
2018-04-17T05:54:52.597Z,19.60
2018-04-17T05:57:20.192Z,20.12
2018-04-17T05:59:47.672Z,20.68
2018-04-17T06:02:15.109Z,21.53
2018-04-17T06:04:42.570Z,21.76
2018-04-17T06:07:10.039Z,22.34
2018-04-17T06:09:38.108Z,23.01
2018-04-17T06:12:05.542Z,23.47
2018-04-17T06:14:33.070Z,23.91
2018-04-17T06:17:00.544Z,24.56
2018-04-17T06:19:28.492Z,24.93
2018-04-17T06:21:56.036Z,25.08
2018-04-17T06:24:23.523Z,25.38
2018-04-17T06:26:50.956Z,25.60
2018-04-17T06:29:19.353Z,26.05
2018-04-17T06:31:46.787Z,26.50
2018-04-17T06:34:14.243Z,26.10
2018-04-17T06:36:41.789Z,26.36
2018-04-17T06:39:09.313Z,26.66
2018-04-17T06:41:36.773Z,27.27
2018-04-17T06:44:04.220Z,27.59
2018-04-17T06:46:31.670Z,27.89
2018-04-17T06:48:59.175Z,26.47
2018-04-17T06:51:26.624Z,22.74
2018-04-17T06:53:54.070Z,21.09
2018-04-17T06:56:21.551Z,20.11
2018-04-17T06:58:49.075Z,19.32
2018-04-17T07:01:16.580Z,18.87
2018-04-17T07:03:44.047Z,18.73
2018-04-17T07:06:11.514Z,18.63
2018-04-17T07:08:38.968Z,18.44
2018-04-17T07:11:06.422Z,18.17
2018-04-17T07:13:33.855Z,18.06
2018-04-17T07:16:05.653Z,17.95
2018-04-17T07:18:33.578Z,17.95
2018-04-17T07:21:01.060Z,18.07
2018-04-17T07:23:28.537Z,18.14
2018-04-17T07:25:56.306Z,18.26
2018-04-17T07:28:23.823Z,18.39
2018-04-17T07:30:51.264Z,18.38
2018-04-17T07:33:18.737Z,18.43
2018-04-17T07:35:46.205Z,18.48
2018-04-17T07:38:13.669Z,18.52
2018-04-17T07:40:41.120Z,18.52
2018-04-17T07:43:08.594Z,18.61
2018-04-17T07:45:36.380Z,18.75
2018-04-17T07:48:22.644Z,18.68
2018-04-17T07:50:50.072Z,18.80
2018-04-17T07:53:17.879Z,18.80
2018-04-17T07:55:45.382Z,18.92
2018-04-17T07:58:12.805Z,19.02
2018-04-17T08:00:40.326Z,19.14
2018-04-17T08:03:07.764Z,19.20
2018-04-17T08:05:35.322Z,19.23
2018-04-17T08:08:03.610Z,19.27
2018-04-17T08:10:31.085Z,19.29
2018-04-17T08:12:58.543Z,19.18
2018-04-17T08:15:25.999Z,19.20
2018-04-17T08:17:53.449Z,19.23
2018-04-17T08:20:21.368Z,19.26
2018-04-17T08:22:49.227Z,19.46
2018-04-17T08:25:16.787Z,19.65
2018-04-17T08:27:45.080Z,19.69
2018-04-17T08:30:12.573Z,19.67
2018-04-17T08:32:40.030Z,19.82
2018-04-17T08:35:07.863Z,19.74
2018-04-17T08:37:35.297Z,19.83
2018-04-17T08:40:02.730Z,19.89
2018-04-17T08:42:30.227Z,19.91
2018-04-17T08:44:58.313Z,20.03
2018-04-17T08:47:25.773Z,20.19
2018-04-17T08:49:53.222Z,20.39
2018-04-17T08:52:20.760Z,20.15
2018-04-17T08:54:48.193Z,20.24
2018-04-17T08:57:15.657Z,20.45
2018-04-17T08:59:43.112Z,20.52
2018-04-17T09:02:10.589Z,20.71
2018-04-17T09:04:38.045Z,20.67
2018-04-17T09:07:05.511Z,20.92
2018-04-17T09:09:32.992Z,20.80
2018-04-17T09:12:00.495Z,20.76
2018-04-17T09:14:27.890Z,20.79
2018-04-17T09:16:55.344Z,20.86
2018-04-17T09:19:22.804Z,20.88
2018-04-17T09:21:50.322Z,20.95
2018-04-17T09:24:17.784Z,21.08
2018-04-17T09:26:45.240Z,21.19
2018-04-17T09:29:12.781Z,21.30
2018-04-17T09:31:41.020Z,21.39
2018-04-17T09:34:08.536Z,21.46
2018-04-17T09:36:36.130Z,21.52
2018-04-17T09:39:07.719Z,21.65
2018-04-17T09:41:35.216Z,21.86
2018-04-17T09:44:02.684Z,21.91
2018-04-17T09:46:30.374Z,21.97
2018-04-17T09:48:57.815Z,22.02
2018-04-17T09:51:25.264Z,22.11
2018-04-17T09:53:52.730Z,22.21
2018-04-17T09:56:20.256Z,22.25
2018-04-17T09:58:47.691Z,22.47
2018-04-17T10:01:21.563Z,22.38
2018-04-17T10:03:49.383Z,22.49
2018-04-17T10:06:16.864Z,22.69
2018-04-17T10:08:44.325Z,22.76
2018-04-17T10:11:11.798Z,22.50
2018-04-17T10:13:39.865Z,22.59
2018-04-17T10:16:07.375Z,22.73
2018-04-17T10:18:34.933Z,22.79
2018-04-17T10:21:02.515Z,22.90
2018-04-17T10:23:30.100Z,23.03
2018-04-17T10:25:57.529Z,23.19
2018-04-17T10:28:25.011Z,23.19
2018-04-17T10:30:52.487Z,23.22
2018-04-17T10:33:19.937Z,23.30
2018-04-17T10:35:47.388Z,23.19
2018-04-17T10:38:14.863Z,23.37
2018-04-17T10:40:42.385Z,23.43
2018-04-17T10:43:09.909Z,23.41
2018-04-17T10:45:37.348Z,23.25
2018-04-17T10:48:04.806Z,23.45
2018-04-17T10:50:32.273Z,23.68
2018-04-17T10:52:59.734Z,23.74
2018-04-17T10:55:27.192Z,23.82
2018-04-17T10:57:54.645Z,23.96
2018-04-17T11:00:22.107Z,23.94
2018-04-17T11:02:49.640Z,24.08
2018-04-17T11:05:17.110Z,24.16
2018-04-17T11:07:44.538Z,24.12
2018-04-17T11:10:12.267Z,24.22
2018-04-17T11:12:39.690Z,24.18
2018-04-17T11:15:07.203Z,24.17
2018-04-17T11:17:34.815Z,24.22
2018-04-17T11:20:02.285Z,24.21
2018-04-17T11:22:29.741Z,24.09
2018-04-17T11:24:57.235Z,24.31
2018-04-17T11:27:24.714Z,24.49
2018-04-17T11:29:52.173Z,24.65
2018-04-17T11:32:19.658Z,24.68
2018-04-17T11:34:47.119Z,24.80
2018-04-17T11:37:14.576Z,24.85
2018-04-17T11:39:42.046Z,24.90
2018-04-17T11:42:09.512Z,24.64
2018-04-17T11:44:36.955Z,24.61
2018-04-17T11:47:04.399Z,24.56
2018-04-17T11:49:31.845Z,24.74
2018-04-17T11:51:59.302Z,24.71
2018-04-17T11:54:26.785Z,24.69
2018-04-17T11:56:54.242Z,24.81
2018-04-17T11:59:21.672Z,24.92
2018-04-17T12:01:49.140Z,25.07
2018-04-17T12:04:16.617Z,25.12
2018-04-17T12:06:45.219Z,25.28
2018-04-17T12:09:12.643Z,25.56
2018-04-17T12:11:40.178Z,25.70
2018-04-17T12:14:08.090Z,25.65
2018-04-17T12:16:35.544Z,25.49
2018-04-17T12:19:03.064Z,25.69
2018-04-17T12:21:30.510Z,25.87
2018-04-17T12:23:57.979Z,26.01
2018-04-17T12:26:25.444Z,26.27
2018-04-17T12:28:53.596Z,26.89
2018-04-17T12:31:21.075Z,28.35
2018-04-17T12:33:48.602Z,29.54
2018-04-17T12:36:16.064Z,30.86
2018-04-17T12:38:43.615Z,32.25
2018-04-17T12:41:11.152Z,32.11
2018-04-17T12:43:38.738Z,32.50
2018-04-17T12:46:07.060Z,33.40
2018-04-17T12:48:35.120Z,33.66
2018-04-17T12:51:02.610Z,34.20
2018-04-17T12:53:30.083Z,34.06
2018-04-17T12:55:57.530Z,35.47
2018-04-17T12:58:25.030Z,35.73
2018-04-17T13:00:52.870Z,35.45
2018-04-17T13:03:20.421Z,34.49
2018-04-17T13:05:48.015Z,34.88
2018-04-17T13:08:15.541Z,34.90
2018-04-17T13:10:43.122Z,35.13
2018-04-17T13:13:10.751Z,36.53
2018-04-17T13:15:38.288Z,36.79
2018-04-17T13:18:06.409Z,36.80
2018-04-17T13:20:33.844Z,36.34
2018-04-17T13:23:01.296Z,36.48
2018-04-17T13:25:28.798Z,35.20
2018-04-17T13:27:56.251Z,34.74
2018-04-17T13:30:23.708Z,35.15
2018-04-17T13:32:51.243Z,33.88
2018-04-17T13:35:18.675Z,33.96
2018-04-17T13:37:46.597Z,34.52
2018-04-17T13:40:14.195Z,34.14
2018-04-17T13:42:41.675Z,33.61
2018-04-17T13:45:09.124Z,33.79
2018-04-17T13:47:37.184Z,33.38
2018-04-17T13:50:04.967Z,33.17
2018-04-17T13:52:32.428Z,32.56
2018-04-17T13:54:59.869Z,31.53
2018-04-17T13:57:27.348Z,32.07
2018-04-17T13:59:54.806Z,31.52
2018-04-17T14:02:22.248Z,30.76
2018-04-17T14:04:50.515Z,30.89
2018-04-17T14:07:17.943Z,31.04
2018-04-17T14:09:45.463Z,31.31
2018-04-17T14:12:12.899Z,32.38
2018-04-17T14:14:40.357Z,32.04
2018-04-17T14:17:07.801Z,31.60
2018-04-17T14:19:35.311Z,32.41
2018-04-17T14:22:02.753Z,32.79
2018-04-17T14:24:30.192Z,33.03
2018-04-17T14:26:57.660Z,33.25
2018-04-17T14:29:25.129Z,32.29
2018-04-17T14:31:52.559Z,31.97
2018-04-17T14:34:20.144Z,32.38
2018-04-17T14:36:47.617Z,32.17
2018-04-17T14:39:15.094Z,32.67
2018-04-17T14:41:43.224Z,32.72
2018-04-17T14:44:10.973Z,30.81
2018-04-17T14:46:39.015Z,30.76
2018-04-17T14:49:06.487Z,30.49
2018-04-17T14:51:33.929Z,31.02
2018-04-17T14:54:01.355Z,30.60
2018-04-17T14:56:29.080Z,31.16
2018-04-17T14:58:56.852Z,31.47
2018-04-17T15:01:24.367Z,31.25
2018-04-17T15:03:51.778Z,31.48
2018-04-17T15:06:19.248Z,31.63
2018-04-17T15:08:47.503Z,31.20
2018-04-17T15:11:15.779Z,30.82
2018-04-17T15:13:43.224Z,30.90
2018-04-17T15:16:11.421Z,30.72
2018-04-17T15:18:38.905Z,30.76
2018-04-17T15:21:06.579Z,30.33
2018-04-17T15:23:34.032Z,30.11
2018-04-17T15:26:01.670Z,29.47
2018-04-17T15:28:29.228Z,29.52
2018-04-17T15:30:56.682Z,29.26
2018-04-17T15:33:24.149Z,28.37
2018-04-17T15:35:51.662Z,28.25
2018-04-17T15:38:19.135Z,28.14
2018-04-17T15:40:46.612Z,27.98
2018-04-17T15:43:14.079Z,27.81
2018-04-17T15:45:41.866Z,27.53
2018-04-17T15:48:09.371Z,27.63
2018-04-17T15:50:36.897Z,27.69
2018-04-17T15:53:04.393Z,27.71
2018-04-17T15:55:32.320Z,27.63
2018-04-17T15:57:59.826Z,27.09
2018-04-17T16:00:27.311Z,26.94
2018-04-17T16:02:54.773Z,26.89
2018-04-17T16:05:22.241Z,26.87
2018-04-17T16:07:50.171Z,26.72
2018-04-17T16:10:18.571Z,26.74
2018-04-17T16:12:46.402Z,26.73
2018-04-17T16:15:13.890Z,26.49
2018-04-17T16:17:42.144Z,26.55
2018-04-17T16:20:09.625Z,26.29
2018-04-17T16:22:37.382Z,26.28
2018-04-17T16:25:04.947Z,26.40
2018-04-17T16:27:32.414Z,26.33
2018-04-17T16:29:59.890Z,26.34
2018-04-17T16:32:27.320Z,26.07
2018-04-17T16:34:55.163Z,25.90
2018-04-17T16:37:22.637Z,26.00
2018-04-17T16:39:50.134Z,26.05
2018-04-17T16:42:17.596Z,25.94
2018-04-17T16:44:45.292Z,25.61
2018-04-17T16:47:12.805Z,25.48
2018-04-17T16:49:40.335Z,25.51
2018-04-17T16:52:07.832Z,25.47
2018-04-17T16:54:35.889Z,25.42
2018-04-17T16:57:03.472Z,25.50
2018-04-17T16:59:31.063Z,25.53
2018-04-17T17:01:58.589Z,25.51
2018-04-17T17:04:26.196Z,25.54
2018-04-17T17:06:53.799Z,25.44
2018-04-17T17:09:22.264Z,25.48
2018-04-17T17:11:50.176Z,25.43
2018-04-17T17:14:18.396Z,25.40
2018-04-17T17:16:45.891Z,25.10
2018-04-17T17:19:13.729Z,24.94
2018-04-17T17:21:41.262Z,24.79
2018-04-17T17:24:08.947Z,24.74
2018-04-17T17:26:36.601Z,24.69
2018-04-17T17:29:04.075Z,24.75
2018-04-17T17:31:31.574Z,24.76
2018-04-17T17:33:59.904Z,24.67
2018-04-17T17:36:27.426Z,24.59
2018-04-17T17:38:55.516Z,24.47
2018-04-17T17:41:23.283Z,24.41
2018-04-17T17:43:50.816Z,24.35
2018-04-17T17:46:18.280Z,24.24
2018-04-17T17:48:45.765Z,24.25
2018-04-17T17:51:13.279Z,24.25
2018-04-17T17:53:40.806Z,24.21
2018-04-17T17:56:08.288Z,24.17
2018-04-17T17:58:35.750Z,24.14
2018-04-17T18:01:03.296Z,24.04
2018-04-17T18:03:30.791Z,24.00
2018-04-17T18:05:58.233Z,23.85
2018-04-17T18:08:26.709Z,23.84
2018-04-17T18:10:54.404Z,23.76
2018-04-17T18:13:21.988Z,23.74
2018-04-17T18:15:49.819Z,23.63
2018-04-17T18:18:18.483Z,23.61
2018-04-17T18:20:46.305Z,23.54
2018-04-17T18:23:16.357Z,23.49
2018-04-17T18:25:44.047Z,23.43
2018-04-17T18:28:11.581Z,23.40
2018-04-17T18:30:39.592Z,23.30
2018-04-17T18:33:07.089Z,23.28
2018-04-17T18:35:34.562Z,23.26
2018-04-17T18:38:02.902Z,23.18
2018-04-17T18:40:30.443Z,23.13
2018-04-17T18:42:58.823Z,23.09
2018-04-17T18:45:26.265Z,23.02
2018-04-17T18:47:53.939Z,22.94
2018-04-17T18:50:21.463Z,22.89
2018-04-17T18:52:49.004Z,22.86
2018-04-17T18:55:17.093Z,22.75
2018-04-17T18:57:44.546Z,22.70
2018-04-17T19:00:12.068Z,22.65
2018-04-17T19:02:39.654Z,22.61
2018-04-17T19:05:07.150Z,22.53
2018-04-17T19:07:35.023Z,22.45
2018-04-17T19:10:02.538Z,22.36
2018-04-17T19:12:29.963Z,22.32
2018-04-17T19:14:57.458Z,22.28
2018-04-17T19:17:25.041Z,22.20
2018-04-17T19:19:52.627Z,22.09
2018-04-17T19:22:20.183Z,22.02
2018-04-17T19:24:47.749Z,21.94
2018-04-17T19:27:15.612Z,21.92
2018-04-17T19:29:43.089Z,21.89
2018-04-17T19:32:10.940Z,21.81
2018-04-17T19:34:38.372Z,21.73
2018-04-17T19:37:05.893Z,21.67
2018-04-17T19:39:34.229Z,21.54
2018-04-17T19:42:01.875Z,21.37
2018-04-17T19:44:29.774Z,21.25
2018-04-17T19:46:57.457Z,21.21
2018-04-17T19:49:25.252Z,21.07
2018-04-17T19:51:52.800Z,20.97
2018-04-17T19:54:20.713Z,21.00
2018-04-17T19:56:49.486Z,21.01
2018-04-17T19:59:17.020Z,20.72
2018-04-17T20:01:44.834Z,20.74
2018-04-17T20:04:13.122Z,20.65
2018-04-17T20:06:40.581Z,20.52
2018-04-17T20:09:08.129Z,20.52
2018-04-17T20:11:35.596Z,20.59
2018-04-17T20:14:03.380Z,20.53
2018-04-17T20:16:31.509Z,20.52
2018-04-17T20:18:58.978Z,20.35
2018-04-17T20:21:26.543Z,20.29
2018-04-17T20:23:54.361Z,20.09
2018-04-17T20:26:22.309Z,20.00
2018-04-17T20:28:50.371Z,19.91
2018-04-17T20:31:18.643Z,19.81
2018-04-17T20:33:46.866Z,19.75
2018-04-17T20:36:15.218Z,19.78
2018-04-17T20:38:43.288Z,19.70
2018-04-17T20:41:11.121Z,19.70
2018-04-17T20:43:38.597Z,19.53
2018-04-17T20:46:06.167Z,19.67
2018-04-17T20:48:34.415Z,19.56
2018-04-17T20:51:01.938Z,19.39
2018-04-17T20:53:29.467Z,19.31
2018-04-17T20:55:56.979Z,19.25
2018-04-17T20:58:25.029Z,19.35
2018-04-17T21:00:52.879Z,19.25
2018-04-17T21:03:20.344Z,19.11
2018-04-17T21:05:47.877Z,18.98
2018-04-17T21:08:16.208Z,18.99
2018-04-17T21:10:43.877Z,18.97
2018-04-17T21:13:12.258Z,18.91
2018-04-17T21:15:40.362Z,18.69
2018-04-17T21:20:39.784Z,18.82
2018-04-17T21:23:09.187Z,18.78
2018-04-17T21:25:36.651Z,18.50
2018-04-17T21:28:04.116Z,18.66
2018-04-17T21:30:31.628Z,18.60
2018-04-17T21:32:59.805Z,18.64
2018-04-17T21:35:27.423Z,18.63
2018-04-17T21:37:55.633Z,18.59
2018-04-17T21:40:23.210Z,18.45
2018-04-17T21:42:50.899Z,18.44
2018-04-17T21:45:18.429Z,18.52
2018-04-17T21:47:46.306Z,18.57
2018-04-17T21:50:13.841Z,18.57
2018-04-17T21:52:41.415Z,18.47
2018-04-17T21:55:09.004Z,18.52
2018-04-17T21:57:36.771Z,18.47
2018-04-17T22:00:04.356Z,18.37
2018-04-17T22:02:31.884Z,18.35
2018-04-17T22:05:01.018Z,18.38
2018-04-17T22:07:28.507Z,18.28
2018-04-17T22:09:56.098Z,18.02
2018-04-17T22:12:23.837Z,17.86
2018-04-17T22:14:51.305Z,17.83
2018-04-17T22:17:18.856Z,17.77
2018-04-17T22:22:17.974Z,17.69
2018-04-17T22:24:45.431Z,17.70
2018-04-17T22:27:12.902Z,17.74
2018-04-17T22:29:40.535Z,17.76
2018-04-17T22:32:08.129Z,17.68
2018-04-17T22:34:35.944Z,17.54
2018-04-17T22:37:03.730Z,17.48
2018-04-17T22:39:31.578Z,17.47
2018-04-17T22:41:59.012Z,17.47
2018-04-17T22:44:26.489Z,17.43
2018-04-17T22:46:54.811Z,17.31
2018-04-17T22:49:23.175Z,17.30
2018-04-17T22:51:50.629Z,17.28
2018-04-17T22:54:18.134Z,17.30
2018-04-17T22:56:45.925Z,17.30
2018-04-17T22:59:13.417Z,17.27
2018-04-17T23:01:41.174Z,17.28
2018-04-17T23:04:08.612Z,17.25
2018-04-17T23:06:36.075Z,17.15
2018-04-17T23:09:04.295Z,17.09
2018-04-17T23:11:32.112Z,16.97
2018-04-17T23:13:59.873Z,16.86
2018-04-17T23:16:27.425Z,16.88
2018-04-17T23:18:54.880Z,16.88
2018-04-17T23:21:22.344Z,16.81
2018-04-17T23:23:50.018Z,16.83
2018-04-17T23:26:17.511Z,16.69
2018-04-17T23:28:44.990Z,16.69
2018-04-17T23:31:12.454Z,16.68
2018-04-17T23:33:40.552Z,16.62
2018-04-17T23:36:08.042Z,16.53
2018-04-17T23:38:35.570Z,16.57
2018-04-17T23:41:03.243Z,16.51
2018-04-17T23:43:30.759Z,16.45
2018-04-17T23:45:58.212Z,16.31
2018-04-17T23:48:25.690Z,16.21
2018-04-17T23:50:53.164Z,16.22
2018-04-17T23:53:20.656Z,16.16
2018-04-17T23:55:48.115Z,16.07
2018-04-17T23:58:16.147Z,15.95
